Block Number:

FAA Identifier: KMEV

AWOS Phone: 775-782-6264

AWOS Radio Freq: 119.325

Current Conditions

Updated: 11:11 AM GMT on 16 Jan 2018

  • Wind Speed (2min):
    4 Knots
  • Wind Direction (2min):
    270 Degrees
  • Temperature (10min):
    0 Celsius
  • Dew Point (10min):
    -2 Celsius
  • Humidity:
    90 Percent
  • Altimeter:
    30.18 inHG
  • Density Altitude:
  • Visibility:
    10 Miles
  • Clouds:
    CLR
METAR: METAR KMEV 161110Z AUTO 27003KT 10SM CLR 00/M02 A3017 RMK AO2